createdAt,value
2023-05-05T00:01:02.193Z,12.04
2023-05-05T00:03:30.275Z,11.90
2023-05-05T00:05:58.820Z,11.51
2023-05-05T00:08:29.500Z,11.67
2023-05-05T00:10:57.608Z,11.75
2023-05-05T00:13:25.675Z,11.72
2023-05-05T00:15:54.521Z,11.55
2023-05-05T00:18:22.281Z,11.63
2023-05-05T00:20:50.162Z,11.63
2023-05-05T00:23:18.384Z,11.69
2023-05-05T00:25:47.872Z,11.69
2023-05-05T00:28:15.686Z,11.74
2023-05-05T00:30:43.497Z,11.66
2023-05-05T00:33:11.456Z,11.66
2023-05-05T00:35:39.150Z,11.52
2023-05-05T00:38:06.786Z,11.49
2023-05-05T00:40:34.611Z,11.50
2023-05-05T00:43:03.762Z,11.61
2023-05-05T00:45:31.702Z,11.55
2023-05-05T00:48:01.222Z,11.56
2023-05-05T00:50:30.845Z,11.43
2023-05-05T00:53:01.671Z,11.52
2023-05-05T00:55:29.988Z,11.58
2023-05-05T00:57:58.078Z,11.59
2023-05-05T01:00:28.176Z,11.45
2023-05-05T01:02:56.127Z,11.36
2023-05-05T01:05:25.847Z,11.44
2023-05-05T01:08:07.421Z,11.40
2023-05-05T01:10:39.467Z,11.35
2023-05-05T01:13:20.357Z,11.33
2023-05-05T01:15:54.188Z,11.31
2023-05-05T01:18:32.526Z,11.19
2023-05-05T01:21:07.780Z,11.25
2023-05-05T01:23:56.069Z,11.23
2023-05-05T01:26:42.040Z,11.23
2023-05-05T01:29:30.986Z,11.16
2023-05-05T01:32:03.486Z,11.11
2023-05-05T01:34:37.410Z,11.13
2023-05-05T01:37:10.898Z,11.11
2023-05-05T01:39:39.754Z,11.11
2023-05-05T01:42:13.806Z,11.08
2023-05-05T01:44:43.885Z,11.08
2023-05-05T01:47:14.672Z,11.14
2023-05-05T01:49:46.622Z,11.08
2023-05-05T01:52:15.897Z,11.03
2023-05-05T01:54:46.087Z,10.99
2023-05-05T01:57:15.521Z,11.04
2023-05-05T01:59:43.672Z,11.00
2023-05-05T02:02:14.183Z,10.99
2023-05-05T02:04:44.283Z,10.93
2023-05-05T02:07:13.716Z,11.06
2023-05-05T02:09:43.660Z,11.02
2023-05-05T02:12:13.183Z,10.94
2023-05-05T02:14:43.894Z,10.94
2023-05-05T02:17:14.195Z,10.84
2023-05-05T02:19:45.424Z,10.85
2023-05-05T02:22:16.509Z,10.76
2023-05-05T02:24:44.993Z,10.96
2023-05-05T02:27:13.374Z,11.01
2023-05-05T02:29:48.672Z,11.05
2023-05-05T02:32:29.464Z,10.88
2023-05-05T02:35:00.156Z,10.76
2023-05-05T02:37:31.015Z,10.87
2023-05-05T02:40:03.889Z,10.96
2023-05-05T02:42:38.045Z,10.74
2023-05-05T02:45:11.206Z,10.92
2023-05-05T02:47:40.421Z,10.96
2023-05-05T02:50:09.517Z,10.99
2023-05-05T02:52:38.307Z,10.93
2023-05-05T02:55:08.149Z,10.90
2023-05-05T02:57:39.807Z,10.96
2023-05-05T03:00:11.999Z,10.97
2023-05-05T03:02:45.960Z,10.98
2023-05-05T03:05:20.877Z,10.99
2023-05-05T03:07:55.947Z,10.89
2023-05-05T03:10:31.559Z,10.92
2023-05-05T03:13:03.310Z,10.89
2023-05-05T03:15:33.438Z,10.99
2023-05-05T03:18:04.924Z,10.88
2023-05-05T03:20:33.668Z,10.63
2023-05-05T03:23:02.569Z,10.62
2023-05-05T03:25:46.466Z,10.70
2023-05-05T03:28:15.859Z,10.69
2023-05-05T03:30:44.960Z,10.65
2023-05-05T03:33:15.387Z,10.58
2023-05-05T03:35:43.348Z,10.72
2023-05-05T03:38:13.716Z,10.65
2023-05-05T03:40:44.654Z,10.55
2023-05-05T03:43:14.733Z,10.46
2023-05-05T03:45:42.504Z,10.33
2023-05-05T03:48:10.522Z,10.35
2023-05-05T03:50:39.740Z,10.45
2023-05-05T03:53:07.648Z,10.50
2023-05-05T03:55:37.339Z,10.51
2023-05-05T03:58:06.284Z,10.61
2023-05-05T04:00:34.240Z,10.66
2023-05-05T04:03:03.398Z,10.54
2023-05-05T04:05:32.234Z,10.56
2023-05-05T04:08:02.070Z,10.56
2023-05-05T04:11:11.390Z,10.58
2023-05-05T04:14:07.853Z,10.63
2023-05-05T04:16:37.090Z,10.58
2023-05-05T04:19:07.164Z,10.61
2023-05-05T04:21:37.887Z,10.65
2023-05-05T04:24:08.652Z,10.66
2023-05-05T04:26:37.404Z,10.71
2023-05-05T04:29:05.057Z,10.82
2023-05-05T04:31:33.524Z,10.92
2023-05-05T04:34:03.015Z,10.79
2023-05-05T04:36:30.761Z,10.87
2023-05-05T04:39:00.557Z,10.92
2023-05-05T04:41:30.169Z,10.97
2023-05-05T04:43:58.671Z,11.00
2023-05-05T04:46:27.002Z,11.03
2023-05-05T04:48:55.680Z,11.13
2023-05-05T04:51:23.464Z,11.27
2023-05-05T04:53:52.210Z,11.32
2023-05-05T04:56:24.058Z,11.35
2023-05-05T04:58:56.621Z,11.51
2023-05-05T05:01:28.118Z,11.54
2023-05-05T05:03:59.031Z,11.55
2023-05-05T05:06:27.585Z,11.67
2023-05-05T05:08:56.824Z,11.89
2023-05-05T05:11:27.339Z,12.02
2023-05-05T05:13:58.902Z,11.90
2023-05-05T05:16:29.975Z,12.23
2023-05-05T05:19:00.174Z,12.34
2023-05-05T05:21:34.548Z,12.45
2023-05-05T05:24:06.934Z,12.66
2023-05-05T05:26:38.844Z,12.83
2023-05-05T05:29:14.420Z,12.94
2023-05-05T05:32:19.819Z,13.18
2023-05-05T05:37:51.636Z,13.35
2023-05-05T05:40:21.378Z,13.27
2023-05-05T05:42:49.979Z,13.17
2023-05-05T05:45:20.280Z,13.24
2023-05-05T05:47:50.052Z,13.10
2023-05-05T05:50:19.012Z,13.20
2023-05-05T06:07:07.679Z,14.03
2023-05-05T06:09:35.804Z,13.86
2023-05-05T06:12:06.424Z,13.91
2023-05-05T06:22:42.959Z,14.93
2023-05-05T06:25:11.027Z,14.96
2023-05-05T06:27:38.752Z,15.14
2023-05-05T06:30:09.896Z,15.02
2023-05-05T06:32:38.484Z,15.07
2023-05-05T06:35:07.434Z,14.97
2023-05-05T06:37:35.907Z,15.18
2023-05-05T06:40:06.865Z,15.20
2023-05-05T06:42:38.712Z,15.57
2023-05-05T06:45:07.333Z,15.60
2023-05-05T06:47:35.954Z,15.68
2023-05-05T06:50:05.459Z,15.96
2023-05-05T06:52:33.556Z,16.20
2023-05-05T06:55:01.583Z,16.46
2023-05-05T06:57:33.248Z,17.08
2023-05-05T07:00:01.917Z,17.92
2023-05-05T07:02:32.302Z,19.71
2023-05-05T07:05:01.068Z,21.11
2023-05-05T07:07:28.784Z,21.76
2023-05-05T07:09:56.525Z,23.18
2023-05-05T07:15:26.045Z,24.32
2023-05-05T07:17:55.015Z,25.77
2023-05-05T07:20:26.248Z,26.78
2023-05-05T07:22:54.366Z,27.29
2023-05-05T07:25:26.828Z,26.34
2023-05-05T07:28:01.058Z,24.37
2023-05-05T07:30:28.846Z,27.90
2023-05-05T07:35:39.584Z,28.28
2023-05-05T07:38:13.421Z,29.13
2023-05-05T07:40:48.648Z,27.81
2023-05-05T07:43:19.100Z,28.33
2023-05-05T07:45:56.754Z,29.07
2023-05-05T07:48:31.987Z,27.41
2023-05-05T07:51:00.523Z,28.93
2023-05-05T07:53:31.478Z,29.26
2023-05-05T07:55:59.278Z,30.48
2023-05-05T07:58:35.571Z,28.67
2023-05-05T08:01:08.932Z,30.11
2023-05-05T08:03:37.225Z,29.71
2023-05-05T08:06:19.444Z,29.50
2023-05-05T08:08:48.970Z,29.83
2023-05-05T08:11:16.780Z,29.47
2023-05-05T08:13:46.469Z,31.23
2023-05-05T08:16:17.600Z,30.96
2023-05-05T08:18:53.522Z,32.08
2023-05-05T08:21:21.287Z,30.31
2023-05-05T08:23:49.061Z,29.63
2023-05-05T08:26:20.650Z,31.60
2023-05-05T08:28:50.010Z,31.58
2023-05-05T08:31:19.295Z,31.58
2023-05-05T08:33:48.249Z,31.56
2023-05-05T08:36:16.376Z,32.24
2023-05-05T08:38:44.145Z,31.28
2023-05-05T08:41:22.847Z,31.43
2023-05-05T08:43:52.859Z,31.64
2023-05-05T08:46:21.236Z,32.21
2023-05-05T08:48:49.805Z,31.42
2023-05-05T10:31:13.155Z,28.12
2023-05-05T10:33:55.359Z,28.06
2023-05-05T10:36:24.779Z,26.95
2023-05-05T10:38:56.605Z,28.12
2023-05-05T10:41:26.044Z,28.81
2023-05-05T10:43:56.240Z,28.80
2023-05-05T10:46:24.685Z,28.53
2023-05-05T10:49:01.049Z,28.73
2023-05-05T10:51:40.655Z,29.60
2023-05-05T10:54:15.088Z,29.44
2023-05-05T10:56:44.550Z,27.81
2023-05-05T10:59:43.846Z,28.55
2023-05-05T11:02:26.062Z,28.85
2023-05-05T11:05:14.917Z,28.82
2023-05-05T11:07:43.501Z,29.45
2023-05-05T11:10:12.506Z,29.21
2023-05-05T11:13:24.681Z,29.00
2023-05-05T11:15:56.997Z,28.10
2023-05-05T11:18:37.854Z,27.12
2023-05-05T11:21:15.726Z,27.29
2023-05-05T11:23:45.955Z,27.09
2023-05-05T11:26:16.477Z,27.76
2023-05-05T11:28:59.473Z,28.31
2023-05-05T11:31:28.142Z,28.55
2023-05-05T11:34:29.394Z,28.71
2023-05-05T11:37:10.652Z,27.48
2023-05-05T11:39:55.103Z,27.34
2023-05-05T11:42:31.295Z,28.10
2023-05-05T11:45:02.338Z,27.08
2023-05-05T11:47:32.688Z,27.07
2023-05-05T11:50:23.478Z,26.00
2023-05-05T11:52:59.656Z,25.14
2023-05-05T11:55:28.024Z,24.73
2023-05-05T11:57:58.117Z,24.57
2023-05-05T12:00:37.220Z,24.23
2023-05-05T12:03:08.163Z,23.76
2023-05-05T12:05:37.214Z,23.22
2023-05-05T12:08:10.717Z,22.99
2023-05-05T12:10:43.142Z,22.68
2023-05-05T12:13:24.313Z,22.55
2023-05-05T12:15:54.148Z,22.36
2023-05-05T12:18:23.513Z,22.21
2023-05-05T12:20:53.738Z,22.23
2023-05-05T12:23:28.529Z,22.18
2023-05-05T12:25:59.516Z,22.11
2023-05-05T12:28:44.388Z,22.23
2023-05-05T12:31:15.936Z,22.33
2023-05-05T12:33:44.957Z,22.36
2023-05-05T12:36:13.634Z,22.47
2023-05-05T12:38:47.450Z,22.52
2023-05-05T12:41:24.859Z,22.79
2023-05-05T12:43:59.834Z,22.74
2023-05-05T12:46:29.947Z,22.74
2023-05-05T12:49:12.451Z,22.60
2023-05-05T12:51:53.814Z,22.77
2023-05-05T12:54:29.505Z,22.92
2023-05-05T12:56:58.560Z,22.87
2023-05-05T12:59:30.831Z,22.58
2023-05-05T13:02:01.284Z,22.55
2023-05-05T13:04:29.400Z,22.45
2023-05-05T13:07:11.901Z,22.67
2023-05-05T13:09:41.482Z,22.62
2023-05-05T13:12:12.421Z,22.75
2023-05-05T13:14:41.005Z,23.16
2023-05-05T13:17:08.807Z,23.15
2023-05-05T13:19:41.724Z,23.36
2023-05-05T13:22:10.928Z,23.29
2023-05-05T13:24:50.840Z,23.07
2023-05-05T13:27:21.969Z,23.18
2023-05-05T13:29:50.012Z,23.11
2023-05-05T13:32:18.309Z,22.98
2023-05-05T13:34:46.000Z,22.94
2023-05-05T13:37:13.663Z,22.90
2023-05-05T13:39:41.401Z,22.55
2023-05-05T13:42:09.697Z,22.27
2023-05-05T13:44:39.321Z,22.16
2023-05-05T13:47:07.516Z,22.04
2023-05-05T13:49:35.966Z,21.97
2023-05-05T13:52:03.660Z,21.95
2023-05-05T13:54:31.659Z,21.95
2023-05-05T13:57:00.048Z,21.93
2023-05-05T13:59:28.405Z,21.85
2023-05-05T14:01:57.788Z,21.82
2023-05-05T14:04:25.917Z,21.79
2023-05-05T14:06:54.753Z,21.80
2023-05-05T14:09:22.586Z,21.73
2023-05-05T14:11:50.278Z,21.72
2023-05-05T14:14:18.033Z,21.76
2023-05-05T14:16:47.849Z,21.87
2023-05-05T14:19:18.499Z,21.85
2023-05-05T14:21:46.527Z,21.92
2023-05-05T14:24:14.215Z,21.82
2023-05-05T14:26:41.932Z,21.78
2023-05-05T14:29:09.662Z,21.71
2023-05-05T14:31:37.419Z,21.60
2023-05-05T14:34:05.517Z,21.56
2023-05-05T14:36:34.970Z,21.47
2023-05-05T14:39:02.716Z,21.41
2023-05-05T14:41:30.375Z,21.42
2023-05-05T14:43:59.189Z,21.47
2023-05-05T14:46:27.865Z,21.27
2023-05-05T14:48:55.693Z,21.36
2023-05-05T14:51:23.487Z,21.45
2023-05-05T14:53:52.520Z,20.87
2023-05-05T14:56:21.861Z,20.82
2023-05-05T14:58:49.646Z,21.02
2023-05-05T15:01:17.532Z,20.96
2023-05-05T15:03:45.436Z,21.21
2023-05-05T15:06:15.209Z,21.30
2023-05-05T15:08:43.233Z,21.14
2023-05-05T15:11:12.358Z,21.13
2023-05-05T15:13:41.450Z,21.17
2023-05-05T15:16:09.577Z,21.17
2023-05-05T15:18:37.441Z,21.27
2023-05-05T15:21:05.569Z,21.26
2023-05-05T15:23:33.330Z,21.27
2023-05-05T15:26:01.296Z,21.09
2023-05-05T15:28:30.404Z,20.95
2023-05-05T15:31:01.784Z,20.87
2023-05-05T15:33:30.186Z,20.82
2023-05-05T15:35:58.027Z,20.76
2023-05-05T15:38:25.822Z,20.69
2023-05-05T15:40:53.516Z,20.60
2023-05-05T15:43:21.219Z,20.48
2023-05-05T15:45:50.275Z,20.51
2023-05-05T15:48:17.974Z,20.56
2023-05-05T15:50:45.657Z,20.38
2023-05-05T15:53:13.403Z,20.30
2023-05-05T15:55:41.648Z,20.19
2023-05-05T15:58:09.401Z,20.14
2023-05-05T16:00:37.313Z,20.30
2023-05-05T16:03:06.569Z,20.42
2023-05-05T16:05:34.444Z,20.40
2023-05-05T16:08:02.185Z,20.38
2023-05-05T16:10:32.830Z,20.34
2023-05-05T16:13:00.695Z,20.30
2023-05-05T16:15:28.547Z,20.24
2023-05-05T16:17:56.231Z,20.29
2023-05-05T16:20:25.314Z,20.28
2023-05-05T16:22:53.035Z,20.31
2023-05-05T16:25:20.923Z,20.22
2023-05-05T16:27:48.658Z,20.19
2023-05-05T16:30:17.061Z,20.17
2023-05-05T16:32:47.536Z,20.15
2023-05-05T16:35:15.456Z,20.13
2023-05-05T16:37:44.610Z,20.17
2023-05-05T16:40:14.508Z,20.14
2023-05-05T16:42:44.353Z,20.06
2023-05-05T16:45:13.448Z,20.01
2023-05-05T16:47:41.200Z,20.03
2023-05-05T16:50:09.840Z,20.01
2023-05-05T16:52:37.892Z,20.07
2023-05-05T16:55:07.991Z,20.11
2023-05-05T16:57:35.994Z,20.06
2023-05-05T17:00:03.798Z,20.04
2023-05-05T17:02:31.501Z,19.97
2023-05-05T17:04:59.475Z,19.91
2023-05-05T17:07:27.458Z,19.87
2023-05-05T17:09:55.215Z,19.88
2023-05-05T17:12:25.651Z,19.85
2023-05-05T17:14:53.593Z,19.82
2023-05-05T17:17:21.333Z,19.84
2023-05-05T17:19:49.052Z,19.77
2023-05-05T17:22:17.896Z,19.74
2023-05-05T17:24:46.071Z,19.68
2023-05-05T17:27:14.880Z,19.65
2023-05-05T17:29:44.798Z,19.65
2023-05-05T17:32:12.602Z,19.74
2023-05-05T17:34:41.858Z,19.67
2023-05-05T17:37:10.094Z,19.65
2023-05-05T17:39:37.804Z,19.51
2023-05-05T17:42:06.294Z,19.45
2023-05-05T17:44:33.966Z,19.38
2023-05-05T17:47:04.004Z,19.34
2023-05-05T17:49:33.240Z,19.43
2023-05-05T17:52:02.586Z,19.46
2023-05-05T17:54:30.330Z,19.40
2023-05-05T17:57:00.742Z,19.28
2023-05-05T17:59:29.778Z,19.15
2023-05-05T18:01:57.742Z,19.12
2023-05-05T18:04:27.100Z,19.03
2023-05-05T18:06:56.037Z,19.08
2023-05-05T18:09:24.668Z,19.09
2023-05-05T18:11:53.433Z,19.04
2023-05-05T18:14:22.497Z,19.01
2023-05-05T18:16:52.441Z,19.04
2023-05-05T18:19:22.288Z,19.08
2023-05-05T18:21:52.522Z,19.04
2023-05-05T18:24:20.753Z,18.98
2023-05-05T18:26:50.536Z,18.97
2023-05-05T18:29:20.576Z,18.92
2023-05-05T18:31:51.770Z,18.88
2023-05-05T18:34:22.031Z,18.83
2023-05-05T18:36:54.219Z,18.81
2023-05-05T18:39:22.495Z,18.78
2023-05-05T18:41:50.392Z,18.70
2023-05-05T18:44:19.639Z,18.69
2023-05-05T18:46:48.969Z,18.62
2023-05-05T18:49:17.234Z,18.66
2023-05-05T18:51:46.252Z,18.52
2023-05-05T18:54:15.424Z,18.61
2023-05-05T18:56:45.130Z,18.60
2023-05-05T18:59:13.012Z,18.62
2023-05-05T19:01:44.120Z,18.57
2023-05-05T19:04:26.836Z,18.57
2023-05-05T19:06:58.876Z,18.53
2023-05-05T19:09:32.747Z,18.43
2023-05-05T19:12:02.454Z,18.42
2023-05-05T19:14:34.181Z,18.43
2023-05-05T19:17:03.670Z,18.42
2023-05-05T19:19:37.771Z,18.29
2023-05-05T19:22:07.673Z,18.27
2023-05-05T19:24:40.579Z,18.09
2023-05-05T19:27:14.754Z,17.86
2023-05-05T19:29:44.816Z,17.31
2023-05-05T19:32:14.564Z,16.67
2023-05-05T19:34:45.246Z,16.34
2023-05-05T19:37:14.657Z,16.12
2023-05-05T19:39:49.086Z,15.99
2023-05-05T19:42:18.591Z,15.95
2023-05-05T19:44:48.153Z,15.99
2023-05-05T19:47:16.964Z,16.02
2023-05-05T19:49:45.452Z,15.99
2023-05-05T19:52:13.970Z,15.92
2023-05-05T19:54:48.419Z,15.97
2023-05-05T19:57:18.197Z,15.90
2023-05-05T19:59:47.154Z,15.84
2023-05-05T20:02:23.980Z,15.79
2023-05-05T20:04:57.914Z,15.77
2023-05-05T20:07:26.627Z,15.66
2023-05-05T20:09:58.814Z,15.60
2023-05-05T20:12:27.054Z,15.57
2023-05-05T20:14:57.186Z,15.53
2023-05-05T20:17:31.388Z,15.56
2023-05-05T20:20:02.115Z,15.50
2023-05-05T20:22:31.094Z,15.49
2023-05-05T20:25:01.414Z,15.50
2023-05-05T20:27:32.961Z,15.47
2023-05-05T20:30:05.125Z,15.38
2023-05-05T20:32:34.902Z,15.36
2023-05-05T20:35:04.667Z,15.35
2023-05-05T20:37:33.870Z,15.30
2023-05-05T20:40:06.298Z,15.27
2023-05-05T20:42:37.077Z,15.25
2023-05-05T20:45:08.323Z,15.30
2023-05-05T20:47:38.552Z,15.21
2023-05-05T20:50:13.496Z,15.18
2023-05-05T20:52:42.290Z,15.19
2023-05-05T20:55:20.223Z,15.17
2023-05-05T20:57:55.853Z,15.18
2023-05-05T21:00:28.383Z,15.15
2023-05-05T21:02:58.973Z,15.11
2023-05-05T21:05:28.042Z,15.14
2023-05-05T21:08:01.318Z,15.09
2023-05-05T21:10:33.342Z,14.98
2023-05-05T21:13:02.357Z,15.06
2023-05-05T21:15:34.656Z,15.00
2023-05-05T21:18:07.903Z,15.04
2023-05-05T21:20:36.889Z,15.07
2023-05-05T21:23:04.888Z,14.95
2023-05-05T21:25:34.570Z,15.01
2023-05-05T21:28:10.497Z,15.04
2023-05-05T21:30:39.410Z,15.05
2023-05-05T21:33:07.589Z,15.00
2023-05-05T21:35:39.084Z,14.97
2023-05-05T21:38:08.280Z,14.96
2023-05-05T21:40:37.639Z,14.94
2023-05-05T21:43:08.321Z,14.93
2023-05-05T21:45:38.066Z,14.92
2023-05-05T21:48:11.986Z,14.92
2023-05-05T21:50:43.025Z,14.95
2023-05-05T21:53:10.963Z,14.92
2023-05-05T21:55:42.895Z,15.00
2023-05-05T21:58:13.618Z,14.98
2023-05-05T22:00:44.597Z,14.80
2023-05-05T22:03:27.984Z,14.76
2023-05-05T22:05:56.876Z,14.69
2023-05-05T22:08:25.747Z,14.81
2023-05-05T22:10:55.237Z,14.88
2023-05-05T22:13:23.753Z,14.82
2023-05-05T22:15:55.308Z,14.77
2023-05-05T22:18:23.293Z,14.75
2023-05-05T22:20:51.544Z,14.82
2023-05-05T22:23:20.594Z,14.86
2023-05-05T22:25:49.174Z,14.88
2023-05-05T22:28:18.816Z,15.02
2023-05-05T22:30:46.993Z,15.03
2023-05-05T22:33:17.583Z,15.01
2023-05-05T22:35:45.520Z,15.04
2023-05-05T22:38:14.696Z,14.95
2023-05-05T22:40:51.032Z,14.96
2023-05-05T22:43:28.863Z,14.90
2023-05-05T22:46:01.451Z,14.87
2023-05-05T22:48:31.296Z,14.89
2023-05-05T22:50:59.947Z,14.84
2023-05-05T22:53:29.589Z,14.82
2023-05-05T22:56:01.813Z,14.89
2023-05-05T22:58:32.659Z,14.91
2023-05-05T23:01:00.983Z,14.92
2023-05-05T23:03:30.482Z,14.98
2023-05-05T23:05:59.311Z,15.01
2023-05-05T23:08:28.767Z,14.97
2023-05-05T23:10:57.743Z,14.89
2023-05-05T23:13:27.689Z,14.84
2023-05-05T23:15:57.468Z,14.86
2023-05-05T23:18:26.735Z,14.81
2023-05-05T23:20:55.705Z,14.75
2023-05-05T23:23:25.160Z,14.73
2023-05-05T23:25:55.265Z,14.80
2023-05-05T23:28:26.002Z,14.81
2023-05-05T23:30:56.288Z,14.77
2023-05-05T23:33:27.265Z,14.78
2023-05-05T23:35:55.407Z,14.81
2023-05-05T23:38:23.822Z,14.76
2023-05-05T23:40:53.138Z,14.67
2023-05-05T23:43:25.985Z,14.70
2023-05-05T23:45:54.200Z,14.78
2023-05-05T23:48:22.172Z,14.76
2023-05-05T23:50:53.564Z,14.76
2023-05-05T23:53:21.562Z,14.77
2023-05-05T23:55:51.993Z,14.75
2023-05-05T23:58:22.548Z,14.67
